sensor_id;sensor_type;location;lat;lon;timestamp;P1;durP1;ratioP1;P2;durP2;ratioP2
36833;SDS011;48003;52.084;5.224;2022-08-19T00:01:21;8.5;;;5.4;;
36833;SDS011;48003;52.084;5.224;2022-08-19T00:04:36;7.7;;;5.8;;
36833;SDS011;48003;52.084;5.224;2022-08-19T00:06:12;6.1;;;5.5;;
36833;SDS011;48003;52.084;5.224;2022-08-19T00:07:49;7.5;;;5.7;;
36833;SDS011;48003;52.084;5.224;2022-08-19T00:11:03;7.7;;;5.7;;
36833;SDS011;48003;52.084;5.224;2022-08-19T00:12:41;8.5;;;5.6;;
36833;SDS011;48003;52.084;5.224;2022-08-19T00:14:18;6.1;;;5.4;;
36833;SDS011;48003;52.084;5.224;2022-08-19T00:17:31;7.7;;;5.3;;
36833;SDS011;48003;52.084;5.224;2022-08-19T00:19:08;8.9;;;5.6;;
36833;SDS011;48003;52.084;5.224;2022-08-19T00:20:45;6.8;;;5.5;;
36833;SDS011;48003;52.084;5.224;2022-08-19T00:22:20;5.8;;;5.2;;
36833;SDS011;48003;52.084;5.224;2022-08-19T00:25:36;6.5;;;5.9;;
36833;SDS011;48003;52.084;5.224;2022-08-19T00:27:12;7.8;;;6.0;;
36833;SDS011;48003;52.084;5.224;2022-08-19T00:28:49;7.5;;;5.9;;
36833;SDS011;48003;52.084;5.224;2022-08-19T00:32:04;9.9;;;6.1;;
36833;SDS011;48003;52.084;5.224;2022-08-19T00:33:41;6.7;;;5.8;;
36833;SDS011;48003;52.084;5.224;2022-08-19T00:35:18;8.71;;;6.3;;
36833;SDS011;48003;52.084;5.224;2022-08-19T00:36:54;8.6;;;6.5;;
36833;SDS011;48003;52.084;5.224;2022-08-19T00:40:10;8.4;;;7.0;;
36833;SDS011;48003;52.084;5.224;2022-08-19T00:41:49;10.21;;;6.9;;
36833;SDS011;48003;52.084;5.224;2022-08-19T00:43:27;9.0;;;6.1;;
36833;SDS011;48003;52.084;5.224;2022-08-19T00:46:48;7.8;;;6.2;;
36833;SDS011;48003;52.084;5.224;2022-08-19T00:48:26;8.5;;;6.1;;
36833;SDS011;48003;52.084;5.224;2022-08-19T00:50:02;9.5;;;6.4;;
36833;SDS011;48003;52.084;5.224;2022-08-19T00:55:04;8.31;;;6.2;;
36833;SDS011;48003;52.084;5.224;2022-08-19T00:56:44;6.9;;;5.9;;
36833;SDS011;48003;52.084;5.224;2022-08-19T00:58:22;9.4;;;6.8;;
36833;SDS011;48003;52.084;5.224;2022-08-19T01:00:05;8.31;;;7.0;;
36833;SDS011;48003;52.084;5.224;2022-08-19T01:03:23;8.5;;;7.0;;
36833;SDS011;48003;52.084;5.224;2022-08-19T01:05:00;7.3;;;6.6;;
36833;SDS011;48003;52.084;5.224;2022-08-19T01:06:40;7.4;;;6.5;;
36833;SDS011;48003;52.084;5.224;2022-08-19T01:08:17;8.31;;;7.0;;
36833;SDS011;48003;52.084;5.224;2022-08-19T01:11:33;7.2;;;6.5;;
36833;SDS011;48003;52.084;5.224;2022-08-19T01:13:18;7.3;;;6.6;;
36833;SDS011;48003;52.084;5.224;2022-08-19T01:14:59;7.0;;;6.4;;
36833;SDS011;48003;52.084;5.224;2022-08-19T01:18:15;7.3;;;6.6;;
36833;SDS011;48003;52.084;5.224;2022-08-19T01:19:53;8.71;;;6.9;;
36833;SDS011;48003;52.084;5.224;2022-08-19T01:21:30;7.2;;;6.4;;
36833;SDS011;48003;52.084;5.224;2022-08-19T01:23:20;7.6;;;5.9;;
36833;SDS011;48003;52.084;5.224;2022-08-19T01:26:34;6.1;;;5.5;;
36833;SDS011;48003;52.084;5.224;2022-08-19T01:28:17;7.6;;;6.8;;
36833;SDS011;48003;52.084;5.224;2022-08-19T01:29:56;6.9;;;6.2;;
36833;SDS011;48003;52.084;5.224;2022-08-19T01:31:31;7.7;;;6.3;;
36833;SDS011;48003;52.084;5.224;2022-08-19T01:34:46;8.1;;;6.9;;
36833;SDS011;48003;52.084;5.224;2022-08-19T01:36:23;6.9;;;6.1;;
36833;SDS011;48003;52.084;5.224;2022-08-19T01:38:08;7.0;;;5.9;;
36833;SDS011;48003;52.084;5.224;2022-08-19T01:39:46;6.7;;;6.0;;
36833;SDS011;48003;52.084;5.224;2022-08-19T01:43:00;8.4;;;6.5;;
36833;SDS011;48003;52.084;5.224;2022-08-19T01:44:37;9.71;;;6.6;;
36833;SDS011;48003;52.084;5.224;2022-08-19T01:46:15;8.1;;;6.5;;
36833;SDS011;48003;52.084;5.224;2022-08-19T01:49:28;7.5;;;6.7;;
36833;SDS011;48003;52.084;5.224;2022-08-19T01:51:06;11.0;;;7.1;;
36833;SDS011;48003;52.084;5.224;2022-08-19T01:54:23;9.4;;;6.7;;
36833;SDS011;48003;52.084;5.224;2022-08-19T01:57:39;8.71;;;7.9;;
36833;SDS011;48003;52.084;5.224;2022-08-19T01:59:20;7.8;;;7.1;;
36833;SDS011;48003;52.084;5.224;2022-08-19T02:01:00;8.2;;;7.2;;
36833;SDS011;48003;52.084;5.224;2022-08-19T02:04:12;9.21;;;6.7;;
36833;SDS011;48003;52.084;5.224;2022-08-19T02:05:54;8.1;;;7.3;;
36833;SDS011;48003;52.084;5.224;2022-08-19T02:07:32;8.0;;;7.2;;
36833;SDS011;48003;52.084;5.224;2022-08-19T02:09:09;7.5;;;6.8;;
36833;SDS011;48003;52.084;5.224;2022-08-19T02:12:22;9.0;;;7.1;;
36833;SDS011;48003;52.084;5.224;2022-08-19T02:13:58;9.5;;;7.6;;
36833;SDS011;48003;52.084;5.224;2022-08-19T02:15:36;9.71;;;8.1;;
36833;SDS011;48003;52.084;5.224;2022-08-19T02:18:50;9.21;;;8.31;;
36833;SDS011;48003;52.084;5.224;2022-08-19T02:20:26;9.5;;;7.8;;
36833;SDS011;48003;52.084;5.224;2022-08-19T02:22:03;9.6;;;8.31;;
36833;SDS011;48003;52.084;5.224;2022-08-19T02:23:40;9.21;;;7.7;;
36833;SDS011;48003;52.084;5.224;2022-08-19T02:26:52;10.3;;;7.4;;
36833;SDS011;48003;52.084;5.224;2022-08-19T02:28:29;9.4;;;8.5;;
36833;SDS011;48003;52.084;5.224;2022-08-19T02:30:07;11.2;;;9.1;;
36833;SDS011;48003;52.084;5.224;2022-08-19T02:33:23;14.3;;;10.5;;
36833;SDS011;48003;52.084;5.224;2022-08-19T02:35:00;11.6;;;9.9;;
36833;SDS011;48003;52.084;5.224;2022-08-19T02:36:36;16.8;;;9.81;;
36833;SDS011;48003;52.084;5.224;2022-08-19T02:38:29;12.3;;;10.3;;
36833;SDS011;48003;52.084;5.224;2022-08-19T02:41:44;11.9;;;9.9;;
36833;SDS011;48003;52.084;5.224;2022-08-19T02:43:20;10.8;;;9.71;;
36833;SDS011;48003;52.084;5.224;2022-08-19T02:44:58;11.5;;;10.3;;
36833;SDS011;48003;52.084;5.224;2022-08-19T02:46:34;12.3;;;10.9;;
36833;SDS011;48003;52.084;5.224;2022-08-19T02:49:49;12.1;;;10.5;;
36833;SDS011;48003;52.084;5.224;2022-08-19T02:51:26;11.5;;;10.1;;
36833;SDS011;48003;52.084;5.224;2022-08-19T02:53:08;14.2;;;12.1;;
36833;SDS011;48003;52.084;5.224;2022-08-19T02:56:22;21.4;;;13.3;;
36833;SDS011;48003;52.084;5.224;2022-08-19T02:57:59;15.9;;;12.3;;
36833;SDS011;48003;52.084;5.224;2022-08-19T02:59:36;13.0;;;11.6;;
36833;SDS011;48003;52.084;5.224;2022-08-19T03:01:19;13.1;;;10.9;;
36833;SDS011;48003;52.084;5.224;2022-08-19T03:04:33;13.4;;;11.4;;
36833;SDS011;48003;52.084;5.224;2022-08-19T03:06:10;11.4;;;10.21;;
36833;SDS011;48003;52.084;5.224;2022-08-19T03:07:49;14.7;;;11.7;;
36833;SDS011;48003;52.084;5.224;2022-08-19T03:11:03;13.2;;;11.9;;
36833;SDS011;48003;52.084;5.224;2022-08-19T03:14:18;15.4;;;12.8;;
36833;SDS011;48003;52.084;5.224;2022-08-19T03:15:54;14.6;;;12.7;;
36833;SDS011;48003;52.084;5.224;2022-08-19T03:19:06;13.3;;;11.9;;
36833;SDS011;48003;52.084;5.224;2022-08-19T03:20:43;14.0;;;12.5;;
36833;SDS011;48003;52.084;5.224;2022-08-19T03:22:21;14.0;;;12.5;;
36833;SDS011;48003;52.084;5.224;2022-08-19T03:25:44;15.7;;;14.0;;
36833;SDS011;48003;52.084;5.224;2022-08-19T03:27:24;14.6;;;13.0;;
36833;SDS011;48003;52.084;5.224;2022-08-19T03:29:02;14.7;;;13.2;;
36833;SDS011;48003;52.084;5.224;2022-08-19T03:30:41;15.8;;;13.7;;
36833;SDS011;48003;52.084;5.224;2022-08-19T03:33:55;15.4;;;13.7;;
36833;SDS011;48003;52.084;5.224;2022-08-19T03:35:31;15.5;;;13.8;;
36833;SDS011;48003;52.084;5.224;2022-08-19T03:37:10;14.0;;;12.6;;
36833;SDS011;48003;52.084;5.224;2022-08-19T03:40:30;13.6;;;12.2;;
36833;SDS011;48003;52.084;5.224;2022-08-19T03:42:06;13.0;;;11.7;;
36833;SDS011;48003;52.084;5.224;2022-08-19T03:43:46;14.1;;;12.6;;
36833;SDS011;48003;52.084;5.224;2022-08-19T03:45:23;13.2;;;11.8;;
36833;SDS011;48003;52.084;5.224;2022-08-19T03:48:37;13.6;;;12.1;;
36833;SDS011;48003;52.084;5.224;2022-08-19T03:50:15;13.4;;;12.1;;
36833;SDS011;48003;52.084;5.224;2022-08-19T03:51:52;14.3;;;12.8;;
36833;SDS011;48003;52.084;5.224;2022-08-19T03:55:08;15.8;;;13.9;;
36833;SDS011;48003;52.084;5.224;2022-08-19T03:56:46;16.3;;;13.4;;
36833;SDS011;48003;52.084;5.224;2022-08-19T03:58:24;16.11;;;13.1;;
36833;SDS011;48003;52.084;5.224;2022-08-19T04:00:05;14.9;;;13.3;;
36833;SDS011;48003;52.084;5.224;2022-08-19T04:03:19;17.61;;;13.8;;
36833;SDS011;48003;52.084;5.224;2022-08-19T04:04:55;16.9;;;14.4;;
36833;SDS011;48003;52.084;5.224;2022-08-19T04:06:33;17.91;;;14.6;;
36833;SDS011;48003;52.084;5.224;2022-08-19T04:08:11;17.11;;;15.3;;
36833;SDS011;48003;52.084;5.224;2022-08-19T04:11:25;17.8;;;15.1;;
36833;SDS011;48003;52.084;5.224;2022-08-19T04:13:04;19.11;;;15.0;;
36833;SDS011;48003;52.084;5.224;2022-08-19T04:14:41;16.0;;;14.0;;
36833;SDS011;48003;52.084;5.224;2022-08-19T04:17:56;20.9;;;14.2;;
36833;SDS011;48003;52.084;5.224;2022-08-19T04:19:32;17.11;;;15.3;;
36833;SDS011;48003;52.084;5.224;2022-08-19T04:21:15;18.91;;;15.7;;
36833;SDS011;48003;52.084;5.224;2022-08-19T04:22:52;18.8;;;16.5;;
36833;SDS011;48003;52.084;5.224;2022-08-19T04:26:06;17.61;;;14.9;;
36833;SDS011;48003;52.084;5.224;2022-08-19T04:27:46;17.61;;;14.3;;
36833;SDS011;48003;52.084;5.224;2022-08-19T04:29:25;17.91;;;14.9;;
36833;SDS011;48003;52.084;5.224;2022-08-19T04:32:39;18.61;;;15.0;;
36833;SDS011;48003;52.084;5.224;2022-08-19T04:34:16;14.9;;;13.3;;
36833;SDS011;48003;52.084;5.224;2022-08-19T04:35:58;18.5;;;13.0;;
36833;SDS011;48003;52.084;5.224;2022-08-19T04:37:34;17.91;;;14.6;;
36833;SDS011;48003;52.084;5.224;2022-08-19T04:43:47;19.3;;;16.8;;
36833;SDS011;48003;52.084;5.224;2022-08-19T04:47:00;20.3;;;16.2;;
36833;SDS011;48003;52.084;5.224;2022-08-19T04:48:37;21.3;;;17.61;;
36833;SDS011;48003;52.084;5.224;2022-08-19T04:50:15;21.7;;;17.91;;
36833;SDS011;48003;52.084;5.224;2022-08-19T04:53:31;22.9;;;18.91;;
36833;SDS011;48003;52.084;5.224;2022-08-19T04:55:10;25.7;;;21.3;;
36833;SDS011;48003;52.084;5.224;2022-08-19T04:56:49;27.5;;;22.5;;
36833;SDS011;48003;52.084;5.224;2022-08-19T04:58:27;27.9;;;20.9;;
36833;SDS011;48003;52.084;5.224;2022-08-19T05:01:42;28.1;;;22.4;;
36833;SDS011;48003;52.084;5.224;2022-08-19T05:03:19;26.3;;;21.6;;
36833;SDS011;48003;52.084;5.224;2022-08-19T05:04:57;25.0;;;21.7;;
36833;SDS011;48003;52.084;5.224;2022-08-19T05:08:13;29.2;;;23.8;;
36833;SDS011;48003;52.084;5.224;2022-08-19T05:09:50;27.9;;;23.1;;
36833;SDS011;48003;52.084;5.224;2022-08-19T05:11:27;30.2;;;24.4;;
36833;SDS011;48003;52.084;5.224;2022-08-19T05:13:09;29.8;;;24.9;;
36833;SDS011;48003;52.084;5.224;2022-08-19T05:16:25;29.9;;;24.4;;
36833;SDS011;48003;52.084;5.224;2022-08-19T05:24:29;26.0;;;20.9;;
36833;SDS011;48003;52.084;5.224;2022-08-19T05:26:06;25.6;;;21.1;;
36833;SDS011;48003;52.084;5.224;2022-08-19T05:27:42;28.7;;;23.9;;
36833;SDS011;48003;52.084;5.224;2022-08-19T05:30:57;31.3;;;24.8;;
36833;SDS011;48003;52.084;5.224;2022-08-19T05:32:34;38.1;;;28.7;;
36833;SDS011;48003;52.084;5.224;2022-08-19T05:34:11;37.1;;;28.7;;
36833;SDS011;48003;52.084;5.224;2022-08-19T05:37:27;34.81;;;28.1;;
36833;SDS011;48003;52.084;5.224;2022-08-19T05:39:04;43.9;;;32.1;;
36833;SDS011;48003;52.084;5.224;2022-08-19T05:40:41;41.3;;;31.4;;
36833;SDS011;48003;52.084;5.224;2022-08-19T05:42:20;38.1;;;30.1;;
36833;SDS011;48003;52.084;5.224;2022-08-19T05:45:37;37.6;;;29.3;;
36833;SDS011;48003;52.084;5.224;2022-08-19T05:47:15;40.31;;;30.2;;
36833;SDS011;48003;52.084;5.224;2022-08-19T05:48:53;40.4;;;31.8;;
36833;SDS011;48003;52.084;5.224;2022-08-19T05:52:07;41.3;;;32.1;;
36833;SDS011;48003;52.084;5.224;2022-08-19T05:53:47;45.7;;;33.6;;
36833;SDS011;48003;52.084;5.224;2022-08-19T05:55:23;47.6;;;33.21;;
36833;SDS011;48003;52.084;5.224;2022-08-19T05:57:00;48.6;;;35.21;;
36833;SDS011;48003;52.084;5.224;2022-08-19T06:00:15;48.1;;;35.71;;
36833;SDS011;48003;52.084;5.224;2022-08-19T06:01:54;54.2;;;37.81;;
36833;SDS011;48003;52.084;5.224;2022-08-19T06:03:32;50.6;;;35.6;;
36833;SDS011;48003;52.084;5.224;2022-08-19T06:06:46;57.4;;;39.81;;
36833;SDS011;48003;52.084;5.224;2022-08-19T06:08:24;46.3;;;34.71;;
36833;SDS011;48003;52.084;5.224;2022-08-19T06:10:02;49.0;;;35.81;;
36833;SDS011;48003;52.084;5.224;2022-08-19T06:11:41;43.2;;;34.21;;
36833;SDS011;48003;52.084;5.224;2022-08-19T06:14:58;56.8;;;38.1;;
36833;SDS011;48003;52.084;5.224;2022-08-19T06:16:36;57.6;;;39.4;;
36833;SDS011;48003;52.084;5.224;2022-08-19T06:18:13;54.7;;;39.71;;
36833;SDS011;48003;52.084;5.224;2022-08-19T06:21:28;53.8;;;37.6;;
36833;SDS011;48003;52.084;5.224;2022-08-19T06:23:06;55.8;;;38.9;;
36833;SDS011;48003;52.084;5.224;2022-08-19T06:24:43;72.41;;;46.0;;
36833;SDS011;48003;52.084;5.224;2022-08-19T06:26:19;70.0;;;44.8;;
36833;SDS011;48003;52.084;5.224;2022-08-19T06:29:34;87.5;;;48.7;;
36833;SDS011;48003;52.084;5.224;2022-08-19T06:31:14;87.5;;;48.7;;
36833;SDS011;48003;52.084;5.224;2022-08-19T06:32:52;85.0;;;48.0;;
36833;SDS011;48003;52.084;5.224;2022-08-19T06:36:15;86.8;;;49.5;;
36833;SDS011;48003;52.084;5.224;2022-08-19T06:37:53;84.3;;;47.9;;
36833;SDS011;48003;52.084;5.224;2022-08-19T06:39:31;97.1;;;52.5;;
36833;SDS011;48003;52.084;5.224;2022-08-19T06:41:14;89.4;;;53.3;;
36833;SDS011;48003;52.084;5.224;2022-08-19T06:44:27;93.2;;;53.0;;
36833;SDS011;48003;52.084;5.224;2022-08-19T06:46:09;94.0;;;54.2;;
36833;SDS011;48003;52.084;5.224;2022-08-19T06:47:48;98.7;;;55.4;;
36833;SDS011;48003;52.084;5.224;2022-08-19T06:49:25;93.5;;;54.5;;
36833;SDS011;48003;52.084;5.224;2022-08-19T06:52:44;93.5;;;54.5;;
36833;SDS011;48003;52.084;5.224;2022-08-19T06:54:20;91.4;;;53.9;;
36833;SDS011;48003;52.084;5.224;2022-08-19T06:56:00;81.3;;;50.3;;
36833;SDS011;48003;52.084;5.224;2022-08-19T06:57:36;82.8;;;49.6;;
36833;SDS011;48003;52.084;5.224;2022-08-19T07:01:01;72.8;;;46.3;;
36833;SDS011;48003;52.084;5.224;2022-08-19T07:02:39;72.8;;;46.3;;
36833;SDS011;48003;52.084;5.224;2022-08-19T07:04:17;81.91;;;48.0;;
36833;SDS011;48003;52.084;5.224;2022-08-19T07:07:34;88.6;;;51.6;;
36833;SDS011;48003;52.084;5.224;2022-08-19T07:09:12;82.2;;;50.1;;
36833;SDS011;48003;52.084;5.224;2022-08-19T07:10:53;77.41;;;48.2;;
36833;SDS011;48003;52.084;5.224;2022-08-19T07:12:30;80.41;;;50.1;;
36833;SDS011;48003;52.084;5.224;2022-08-19T07:15:46;72.5;;;45.4;;
36833;SDS011;48003;52.084;5.224;2022-08-19T07:17:22;72.2;;;46.4;;
36833;SDS011;48003;52.084;5.224;2022-08-19T07:18:59;70.3;;;47.7;;
36833;SDS011;48003;52.084;5.224;2022-08-19T07:22:14;70.3;;;47.9;;
36833;SDS011;48003;52.084;5.224;2022-08-19T07:23:51;71.11;;;47.4;;
36833;SDS011;48003;52.084;5.224;2022-08-19T07:25:28;63.9;;;44.2;;
36833;SDS011;48003;52.084;5.224;2022-08-19T07:27:04;69.41;;;46.4;;
36833;SDS011;48003;52.084;5.224;2022-08-19T07:30:23;75.61;;;47.4;;
36833;SDS011;48003;52.084;5.224;2022-08-19T07:31:59;75.5;;;48.4;;
36833;SDS011;48003;52.084;5.224;2022-08-19T07:33:38;68.41;;;47.5;;
36833;SDS011;48003;52.084;5.224;2022-08-19T07:36:50;69.8;;;44.5;;
36833;SDS011;48003;52.084;5.224;2022-08-19T07:38:28;64.3;;;43.7;;
36833;SDS011;48003;52.084;5.224;2022-08-19T07:40:05;64.3;;;43.7;;
36833;SDS011;48003;52.084;5.224;2022-08-19T07:41:43;61.3;;;43.2;;
36833;SDS011;48003;52.084;5.224;2022-08-19T07:45:03;63.4;;;42.6;;
36833;SDS011;48003;52.084;5.224;2022-08-19T07:46:45;63.5;;;42.0;;
36833;SDS011;48003;52.084;5.224;2022-08-19T07:48:28;67.5;;;43.7;;
36833;SDS011;48003;52.084;5.224;2022-08-19T07:50:07;60.4;;;41.0;;
36833;SDS011;48003;52.084;5.224;2022-08-19T07:53:25;59.7;;;40.6;;
36833;SDS011;48003;52.084;5.224;2022-08-19T07:55:04;56.5;;;37.81;;
36833;SDS011;48003;52.084;5.224;2022-08-19T07:56:42;54.8;;;37.4;;
36833;SDS011;48003;52.084;5.224;2022-08-19T07:58:19;52.5;;;37.4;;
36833;SDS011;48003;52.084;5.224;2022-08-19T08:01:35;53.3;;;37.0;;
36833;SDS011;48003;52.084;5.224;2022-08-19T08:03:13;53.3;;;37.0;;
36833;SDS011;48003;52.084;5.224;2022-08-19T08:09:30;48.0;;;33.4;;
36833;SDS011;48003;52.084;5.224;2022-08-19T08:11:09;49.4;;;35.9;;
36833;SDS011;48003;52.084;5.224;2022-08-19T08:14:23;48.3;;;34.0;;
36833;SDS011;48003;52.084;5.224;2022-08-19T08:16:03;49.9;;;34.81;;
36833;SDS011;48003;52.084;5.224;2022-08-19T08:17:40;45.6;;;33.4;;
36833;SDS011;48003;52.084;5.224;2022-08-19T08:19:18;48.1;;;33.5;;
36833;SDS011;48003;52.084;5.224;2022-08-19T08:23:38;46.7;;;35.71;;
36833;SDS011;48003;52.084;5.224;2022-08-19T08:25:14;52.3;;;36.0;;
36833;SDS011;48003;52.084;5.224;2022-08-19T08:26:56;45.3;;;34.4;;
36833;SDS011;48003;52.084;5.224;2022-08-19T08:28:35;50.3;;;35.1;;
36833;SDS011;48003;52.084;5.224;2022-08-19T08:30:13;43.4;;;30.7;;
36833;SDS011;48003;52.084;5.224;2022-08-19T08:31:53;47.7;;;35.1;;
36833;SDS011;48003;52.084;5.224;2022-08-19T08:35:08;45.8;;;34.81;;
36833;SDS011;48003;52.084;5.224;2022-08-19T08:36:48;50.8;;;37.31;;
36833;SDS011;48003;52.084;5.224;2022-08-19T08:38:25;53.0;;;37.21;;
36833;SDS011;48003;52.084;5.224;2022-08-19T08:41:44;54.0;;;38.0;;
36833;SDS011;48003;52.084;5.224;2022-08-19T08:43:33;54.4;;;39.5;;
36833;SDS011;48003;52.084;5.224;2022-08-19T08:45:15;54.3;;;39.1;;
36833;SDS011;48003;52.084;5.224;2022-08-19T08:46:55;51.2;;;38.9;;
36833;SDS011;48003;52.084;5.224;2022-08-19T08:48:37;54.6;;;39.0;;
36833;SDS011;48003;52.084;5.224;2022-08-19T08:52:05;48.2;;;36.5;;
36833;SDS011;48003;52.084;5.224;2022-08-19T08:53:48;54.1;;;37.71;;
36833;SDS011;48003;52.084;5.224;2022-08-19T08:55:27;48.1;;;32.9;;
36833;SDS011;48003;52.084;5.224;2022-08-19T08:57:07;44.9;;;32.5;;
36833;SDS011;48003;52.084;5.224;2022-08-19T09:00:38;41.4;;;30.7;;
36833;SDS011;48003;52.084;5.224;2022-08-19T09:02:20;42.9;;;31.8;;
36833;SDS011;48003;52.084;5.224;2022-08-19T09:03:56;42.7;;;30.1;;
36833;SDS011;48003;52.084;5.224;2022-08-19T09:05:35;41.1;;;28.9;;
36833;SDS011;48003;52.084;5.224;2022-08-19T09:07:30;41.6;;;30.7;;
36833;SDS011;48003;52.084;5.224;2022-08-19T09:09:32;40.0;;;29.8;;
36833;SDS011;48003;52.084;5.224;2022-08-19T09:13:12;41.3;;;29.5;;
36833;SDS011;48003;52.084;5.224;2022-08-19T09:15:01;33.71;;;27.1;;
36833;SDS011;48003;52.084;5.224;2022-08-19T09:16:41;35.81;;;25.7;;
36833;SDS011;48003;52.084;5.224;2022-08-19T09:18:18;37.31;;;26.2;;
36833;SDS011;48003;52.084;5.224;2022-08-19T09:19:56;33.5;;;27.7;;
36833;SDS011;48003;52.084;5.224;2022-08-19T09:23:11;38.0;;;27.5;;
36833;SDS011;48003;52.084;5.224;2022-08-19T09:24:48;36.4;;;28.0;;
36833;SDS011;48003;52.084;5.224;2022-08-19T09:26:25;32.71;;;27.1;;
36833;SDS011;48003;52.084;5.224;2022-08-19T09:29:39;35.71;;;27.4;;
36833;SDS011;48003;52.084;5.224;2022-08-19T09:31:16;31.5;;;26.2;;
36833;SDS011;48003;52.084;5.224;2022-08-19T09:33:00;38.21;;;29.5;;
36833;SDS011;48003;52.084;5.224;2022-08-19T09:34:37;34.4;;;29.2;;
36833;SDS011;48003;52.084;5.224;2022-08-19T09:39:31;32.71;;;27.8;;
36833;SDS011;48003;52.084;5.224;2022-08-19T09:41:09;36.1;;;28.7;;
36833;SDS011;48003;52.084;5.224;2022-08-19T09:44:24;34.0;;;28.6;;
36833;SDS011;48003;52.084;5.224;2022-08-19T09:46:01;39.6;;;29.4;;
36833;SDS011;48003;52.084;5.224;2022-08-19T09:47:38;39.6;;;29.4;;
36833;SDS011;48003;52.084;5.224;2022-08-19T09:49:14;33.6;;;26.9;;
36833;SDS011;48003;52.084;5.224;2022-08-19T09:52:28;32.9;;;26.8;;
36833;SDS011;48003;52.084;5.224;2022-08-19T09:54:04;31.4;;;26.5;;
36833;SDS011;48003;52.084;5.224;2022-08-19T09:55:41;33.71;;;28.5;;
36833;SDS011;48003;52.084;5.224;2022-08-19T09:58:54;35.31;;;29.9;;
36833;SDS011;48003;52.084;5.224;2022-08-19T10:00:31;37.21;;;29.9;;
36833;SDS011;48003;52.084;5.224;2022-08-19T10:02:09;35.31;;;30.5;;
36833;SDS011;48003;52.084;5.224;2022-08-19T10:05:56;38.1;;;32.4;;
36833;SDS011;48003;52.084;5.224;2022-08-19T10:07:35;41.3;;;33.21;;
36833;SDS011;48003;52.084;5.224;2022-08-19T10:09:12;40.9;;;34.6;;
36833;SDS011;48003;52.084;5.224;2022-08-19T10:10:50;36.81;;;32.1;;
36833;SDS011;48003;52.084;5.224;2022-08-19T10:12:27;40.6;;;32.6;;
36833;SDS011;48003;52.084;5.224;2022-08-19T10:15:43;40.71;;;32.4;;
36833;SDS011;48003;52.084;5.224;2022-08-19T10:17:20;35.5;;;30.7;;
36833;SDS011;48003;52.084;5.224;2022-08-19T10:18:56;37.1;;;33.0;;
36833;SDS011;48003;52.084;5.224;2022-08-19T10:20:35;39.31;;;34.4;;
36833;SDS011;48003;52.084;5.224;2022-08-19T10:23:51;39.9;;;33.21;;
36833;SDS011;48003;52.084;5.224;2022-08-19T10:25:31;40.9;;;34.9;;
36833;SDS011;48003;52.084;5.224;2022-08-19T10:27:09;44.4;;;36.5;;
36833;SDS011;48003;52.084;5.224;2022-08-19T10:30:23;44.8;;;36.6;;
36833;SDS011;48003;52.084;5.224;2022-08-19T10:32:00;46.9;;;37.4;;
36833;SDS011;48003;52.084;5.224;2022-08-19T10:33:38;40.5;;;34.5;;
36833;SDS011;48003;52.084;5.224;2022-08-19T10:35:15;40.9;;;33.5;;
36833;SDS011;48003;52.084;5.224;2022-08-19T10:38:28;47.3;;;36.31;;
36833;SDS011;48003;52.084;5.224;2022-08-19T10:40:07;42.5;;;33.9;;
36833;SDS011;48003;52.084;5.224;2022-08-19T10:41:44;48.0;;;36.1;;
36833;SDS011;48003;52.084;5.224;2022-08-19T10:44:57;45.0;;;35.1;;
36833;SDS011;48003;52.084;5.224;2022-08-19T10:46:35;44.7;;;36.6;;
36833;SDS011;48003;52.084;5.224;2022-08-19T10:48:16;43.0;;;35.21;;
36833;SDS011;48003;52.084;5.224;2022-08-19T10:52:46;43.2;;;33.5;;
36833;SDS011;48003;52.084;5.224;2022-08-19T10:56:50;41.7;;;33.5;;
36833;SDS011;48003;52.084;5.224;2022-08-19T10:58:26;43.0;;;34.0;;
36833;SDS011;48003;52.084;5.224;2022-08-19T11:01:40;43.8;;;33.8;;
36833;SDS011;48003;52.084;5.224;2022-08-19T11:03:19;43.2;;;33.21;;
36833;SDS011;48003;52.084;5.224;2022-08-19T11:04:56;42.1;;;31.9;;
36833;SDS011;48003;52.084;5.224;2022-08-19T11:08:11;39.81;;;31.5;;
36833;SDS011;48003;52.084;5.224;2022-08-19T11:09:47;41.3;;;33.1;;
36833;SDS011;48003;52.084;5.224;2022-08-19T11:11:24;45.0;;;34.9;;
36833;SDS011;48003;52.084;5.224;2022-08-19T11:13:00;45.0;;;34.9;;
36833;SDS011;48003;52.084;5.224;2022-08-19T11:16:13;41.3;;;32.6;;
36833;SDS011;48003;52.084;5.224;2022-08-19T11:17:54;40.71;;;33.0;;
36833;SDS011;48003;52.084;5.224;2022-08-19T11:19:32;38.81;;;31.2;;
36833;SDS011;48003;52.084;5.224;2022-08-19T11:22:50;40.31;;;33.0;;
36833;SDS011;48003;52.084;5.224;2022-08-19T11:24:27;44.8;;;33.4;;
36833;SDS011;48003;52.084;5.224;2022-08-19T11:26:04;37.21;;;30.2;;
36833;SDS011;48003;52.084;5.224;2022-08-19T11:27:42;38.21;;;29.7;;
36833;SDS011;48003;52.084;5.224;2022-08-19T11:30:57;39.21;;;28.9;;
36833;SDS011;48003;52.084;5.224;2022-08-19T11:32:36;32.8;;;27.6;;
36833;SDS011;48003;52.084;5.224;2022-08-19T11:34:14;36.81;;;29.3;;
36833;SDS011;48003;52.084;5.224;2022-08-19T11:35:57;38.6;;;33.0;;
36833;SDS011;48003;52.084;5.224;2022-08-19T11:39:14;40.81;;;32.6;;
36833;SDS011;48003;52.084;5.224;2022-08-19T11:40:55;40.1;;;34.21;;
36833;SDS011;48003;52.084;5.224;2022-08-19T11:44:40;38.0;;;30.2;;
36833;SDS011;48003;52.084;5.224;2022-08-19T11:47:53;35.81;;;30.1;;
36833;SDS011;48003;52.084;5.224;2022-08-19T11:49:31;36.6;;;32.6;;
36833;SDS011;48003;52.084;5.224;2022-08-19T11:51:09;32.9;;;29.3;;
36833;SDS011;48003;52.084;5.224;2022-08-19T11:52:53;36.5;;;30.5;;
36833;SDS011;48003;52.084;5.224;2022-08-19T11:56:07;34.71;;;30.9;;
36833;SDS011;48003;52.084;5.224;2022-08-19T11:57:46;35.21;;;29.4;;
36833;SDS011;48003;52.084;5.224;2022-08-19T11:59:22;39.9;;;30.7;;
36833;SDS011;48003;52.084;5.224;2022-08-19T12:00:58;39.4;;;30.5;;
36833;SDS011;48003;52.084;5.224;2022-08-19T12:04:12;38.31;;;30.7;;
36833;SDS011;48003;52.084;5.224;2022-08-19T12:05:49;41.3;;;33.21;;
36833;SDS011;48003;52.084;5.224;2022-08-19T12:07:25;40.0;;;32.9;;
36833;SDS011;48003;52.084;5.224;2022-08-19T12:10:42;42.7;;;34.71;;
36833;SDS011;48003;52.084;5.224;2022-08-19T12:12:19;42.5;;;33.9;;
36833;SDS011;48003;52.084;5.224;2022-08-19T12:13:57;39.71;;;31.6;;
36833;SDS011;48003;52.084;5.224;2022-08-19T12:17:11;39.4;;;32.3;;
36833;SDS011;48003;52.084;5.224;2022-08-19T12:18:50;41.6;;;32.8;;
36833;SDS011;48003;52.084;5.224;2022-08-19T12:20:27;32.6;;;28.9;;
36833;SDS011;48003;52.084;5.224;2022-08-19T12:22:05;34.31;;;29.5;;
36833;SDS011;48003;52.084;5.224;2022-08-19T12:25:19;30.8;;;27.4;;
36833;SDS011;48003;52.084;5.224;2022-08-19T12:26:56;34.0;;;27.5;;
36833;SDS011;48003;52.084;5.224;2022-08-19T12:28:33;29.7;;;25.0;;
36833;SDS011;48003;52.084;5.224;2022-08-19T12:31:49;27.9;;;24.5;;
36833;SDS011;48003;52.084;5.224;2022-08-19T12:33:25;27.7;;;24.7;;
36833;SDS011;48003;52.084;5.224;2022-08-19T12:35:05;28.0;;;23.2;;
36833;SDS011;48003;52.084;5.224;2022-08-19T12:36:42;26.4;;;20.9;;
36833;SDS011;48003;52.084;5.224;2022-08-19T12:39:56;21.7;;;17.61;;
36833;SDS011;48003;52.084;5.224;2022-08-19T12:41:33;18.61;;;16.7;;
36833;SDS011;48003;52.084;5.224;2022-08-19T12:43:09;20.8;;;15.9;;
36833;SDS011;48003;52.084;5.224;2022-08-19T12:46:21;17.3;;;15.0;;
36833;SDS011;48003;52.084;5.224;2022-08-19T12:47:57;15.7;;;12.9;;
36833;SDS011;48003;52.084;5.224;2022-08-19T12:49:37;15.5;;;11.8;;
36833;SDS011;48003;52.084;5.224;2022-08-19T12:51:15;15.6;;;11.4;;
36833;SDS011;48003;52.084;5.224;2022-08-19T12:54:30;12.9;;;9.5;;
36833;SDS011;48003;52.084;5.224;2022-08-19T12:56:09;15.7;;;10.4;;
36833;SDS011;48003;52.084;5.224;2022-08-19T12:57:48;13.5;;;8.5;;
36833;SDS011;48003;52.084;5.224;2022-08-19T13:01:05;9.4;;;8.0;;
36833;SDS011;48003;52.084;5.224;2022-08-19T13:02:46;9.9;;;7.7;;
36833;SDS011;48003;52.084;5.224;2022-08-19T13:04:25;11.9;;;7.7;;
36833;SDS011;48003;52.084;5.224;2022-08-19T13:06:01;10.5;;;6.5;;
36833;SDS011;48003;52.084;5.224;2022-08-19T13:09:16;10.1;;;6.8;;